createdAt,value
2019-01-27T00:01:16.446Z,6.64
2019-01-27T00:03:46.200Z,6.45
2019-01-27T00:06:16.200Z,6.41
2019-01-27T00:08:46.131Z,6.48
2019-01-27T00:11:15.866Z,6.50
2019-01-27T00:13:45.541Z,6.40
2019-01-27T00:16:15.522Z,6.41
2019-01-27T00:18:45.627Z,6.40
2019-01-27T00:21:15.603Z,6.51
2019-01-27T00:23:45.281Z,6.63
2019-01-27T00:26:15.474Z,6.51
2019-01-27T00:28:45.552Z,6.48
2019-01-27T00:31:15.738Z,6.66
2019-01-27T00:33:45.572Z,6.54
2019-01-27T00:36:15.377Z,6.52
2019-01-27T00:38:45.077Z,6.67
2019-01-27T00:41:14.811Z,6.56
2019-01-27T00:43:44.953Z,6.58
2019-01-27T00:46:14.670Z,6.43
2019-01-27T00:48:44.483Z,6.67
2019-01-27T00:51:14.390Z,6.68
2019-01-27T00:53:44.233Z,6.83
2019-01-27T00:56:13.982Z,6.40
2019-01-27T00:58:43.731Z,6.79
2019-01-27T01:01:13.481Z,6.68
2019-01-27T01:03:43.513Z,6.54
2019-01-27T01:06:20.650Z,6.73
2019-01-27T01:08:50.400Z,6.80
2019-01-27T01:11:21.779Z,6.66
2019-01-27T01:13:51.590Z,6.65
2019-01-27T01:16:21.246Z,6.41
2019-01-27T01:18:51.118Z,6.32
2019-01-27T01:21:20.977Z,6.76
2019-01-27T01:23:50.937Z,6.62
2019-01-27T01:26:20.873Z,6.70
2019-01-27T01:28:50.520Z,6.48
2019-01-27T01:31:20.501Z,6.83
2019-01-27T01:33:50.348Z,6.59
2019-01-27T01:36:20.061Z,6.60
2019-01-27T01:38:50.115Z,6.83
2019-01-27T01:41:19.878Z,6.64
2019-01-27T01:43:49.536Z,6.60
2019-01-27T01:46:19.376Z,6.59
2019-01-27T01:48:49.016Z,6.70
2019-01-27T01:51:18.819Z,6.64
2019-01-27T01:53:48.310Z,6.67
2019-01-27T01:56:18.337Z,6.71
2019-01-27T01:58:47.904Z,6.90
2019-01-27T02:01:17.657Z,6.91
2019-01-27T02:03:47.363Z,6.97
2019-01-27T02:06:17.160Z,6.71
2019-01-27T02:08:46.776Z,6.89
2019-01-27T02:11:16.531Z,6.93
2019-01-27T02:13:46.282Z,6.97
2019-01-27T02:16:16.286Z,6.83
2019-01-27T02:18:46.394Z,6.78
2019-01-27T02:21:16.610Z,6.61
2019-01-27T02:23:46.428Z,6.86
2019-01-27T02:26:16.131Z,6.92
2019-01-27T02:28:45.860Z,6.94
2019-01-27T02:31:15.600Z,6.67
2019-01-27T02:33:45.399Z,6.73
2019-01-27T02:36:15.417Z,6.87
2019-01-27T02:38:45.232Z,6.88
2019-01-27T02:41:14.746Z,6.60
2019-01-27T02:43:44.535Z,6.85
2019-01-27T02:46:33.784Z,6.88
2019-01-27T02:49:03.382Z,6.91
2019-01-27T02:51:33.271Z,7.11
2019-01-27T02:54:02.828Z,7.24
2019-01-27T02:56:32.695Z,7.21
2019-01-27T02:59:02.392Z,7.28
2019-01-27T03:01:32.139Z,6.79
2019-01-27T03:04:01.615Z,7.08
2019-01-27T03:06:32.878Z,7.01
2019-01-27T03:09:03.985Z,7.17
2019-01-27T03:11:35.517Z,6.89
2019-01-27T03:14:05.451Z,6.92
2019-01-27T03:16:35.372Z,7.03
2019-01-27T03:19:05.326Z,7.02
2019-01-27T03:21:35.019Z,7.04
2019-01-27T03:24:05.125Z,6.91
2019-01-27T03:26:34.681Z,6.93
2019-01-27T03:29:04.659Z,6.93
2019-01-27T03:31:34.507Z,6.92
2019-01-27T03:34:05.099Z,6.96
2019-01-27T03:36:34.998Z,6.52
2019-01-27T03:39:07.877Z,7.18
2019-01-27T03:41:37.584Z,7.03
2019-01-27T03:44:08.265Z,6.76
2019-01-27T03:46:37.985Z,6.69
2019-01-27T03:49:08.050Z,6.76
2019-01-27T03:51:37.615Z,6.92
2019-01-27T03:54:07.645Z,6.87
2019-01-27T03:56:37.350Z,6.54
2019-01-27T03:59:07.297Z,6.90
2019-01-27T04:01:37.106Z,6.84
2019-01-27T04:04:07.271Z,6.98
2019-01-27T04:06:37.219Z,6.92
2019-01-27T04:09:08.985Z,6.97
2019-01-27T04:11:38.978Z,6.85
2019-01-27T04:14:08.851Z,6.68
2019-01-27T04:16:38.373Z,6.67
2019-01-27T04:19:08.129Z,6.96
2019-01-27T04:21:37.905Z,6.81
2019-01-27T04:24:07.629Z,6.76
2019-01-27T04:26:37.408Z,6.74
2019-01-27T04:29:07.145Z,6.81
2019-01-27T04:31:36.682Z,6.74
2019-01-27T04:34:06.799Z,6.60
2019-01-27T04:36:36.293Z,6.75
2019-01-27T04:39:08.875Z,7.10
2019-01-27T04:41:38.370Z,7.04
2019-01-27T04:44:08.214Z,6.67
2019-01-27T04:46:37.721Z,7.00
2019-01-27T04:49:07.674Z,6.91
2019-01-27T04:51:37.349Z,6.70
2019-01-27T04:54:07.089Z,6.76
2019-01-27T04:56:36.905Z,6.81
2019-01-27T04:59:06.661Z,6.76
2019-01-27T05:01:36.263Z,6.81
2019-01-27T05:04:07.860Z,6.87
2019-01-27T05:06:37.512Z,7.02
2019-01-27T05:09:09.595Z,7.14
2019-01-27T05:11:39.340Z,6.94
2019-01-27T05:14:08.979Z,6.71
2019-01-27T05:16:38.808Z,6.71
2019-01-27T05:19:08.347Z,7.08
2019-01-27T05:21:38.202Z,6.96
2019-01-27T05:24:07.812Z,7.05
2019-01-27T05:26:37.649Z,7.05
2019-01-27T05:29:07.284Z,6.72
2019-01-27T05:31:37.415Z,6.75
2019-01-27T05:34:07.193Z,6.80
2019-01-27T05:36:36.843Z,6.76
2019-01-27T05:39:08.586Z,6.68
2019-01-27T05:41:38.239Z,6.99
2019-01-27T05:44:08.054Z,6.75
2019-01-27T05:46:37.649Z,6.66
2019-01-27T05:49:07.503Z,6.57
2019-01-27T05:51:37.186Z,6.76
2019-01-27T05:54:06.847Z,6.82
2019-01-27T05:56:36.603Z,6.83
2019-01-27T05:59:06.645Z,6.82
2019-01-27T06:01:43.833Z,6.80
2019-01-27T06:04:13.597Z,6.73
2019-01-27T06:06:43.329Z,6.77
2019-01-27T06:09:12.943Z,6.70
2019-01-27T06:11:43.003Z,6.67
2019-01-27T06:14:12.679Z,6.96
2019-01-27T06:16:42.153Z,7.12
2019-01-27T06:19:11.689Z,6.89
2019-01-27T06:21:41.263Z,6.88
2019-01-27T06:24:10.854Z,6.80
2019-01-27T06:26:40.598Z,6.68
2019-01-27T06:29:10.109Z,6.99
2019-01-27T06:31:39.813Z,6.67
2019-01-27T06:34:09.809Z,6.83
2019-01-27T06:36:39.259Z,6.69
2019-01-27T06:39:10.478Z,6.73
2019-01-27T06:41:40.223Z,6.91
2019-01-27T06:44:10.073Z,6.87
2019-01-27T06:46:39.848Z,7.29
2019-01-27T06:49:09.583Z,7.38
2019-01-27T06:51:39.450Z,7.25
2019-01-27T06:54:09.075Z,7.06
2019-01-27T06:56:38.872Z,7.19
2019-01-27T06:59:10.080Z,7.28
2019-01-27T07:01:44.022Z,7.28
2019-01-27T07:04:18.171Z,7.16
2019-01-27T07:06:49.357Z,7.19
2019-01-27T07:09:23.669Z,7.18
2019-01-27T07:12:00.675Z,7.00
2019-01-27T07:14:31.922Z,7.20
2019-01-27T07:17:05.964Z,7.22
2019-01-27T07:19:46.172Z,7.40
2019-01-27T07:22:32.563Z,7.17
2019-01-27T07:25:09.583Z,7.25
2019-01-27T07:27:43.847Z,7.11
2019-01-27T07:30:19.632Z,7.47
2019-01-27T07:33:02.905Z,7.36
2019-01-27T07:35:41.152Z,7.54
2019-01-27T07:38:15.734Z,7.50
2019-01-27T07:40:47.009Z,7.40
2019-01-27T07:43:28.404Z,7.49
2019-01-27T07:46:02.634Z,7.41
2019-01-27T07:48:52.159Z,7.44
2019-01-27T07:51:26.653Z,7.43
2019-01-27T07:54:11.063Z,7.49
2019-01-27T07:56:40.637Z,7.59
2019-01-27T07:59:23.814Z,7.63
2019-01-27T08:02:04.087Z,7.78
2019-01-27T08:04:51.473Z,7.97
2019-01-27T08:07:31.247Z,7.87
2019-01-27T08:10:05.241Z,7.75
2019-01-27T08:12:42.432Z,7.76
2019-01-27T08:15:13.800Z,7.74
2019-01-27T08:17:50.588Z,7.90
2019-01-27T08:20:21.899Z,7.61
2019-01-27T08:22:53.137Z,7.59
2019-01-27T08:25:22.627Z,8.07
2019-01-27T08:28:00.078Z,7.87
2019-01-27T08:30:43.663Z,7.83
2019-01-27T08:33:13.283Z,7.97
2019-01-27T08:36:00.612Z,7.82
2019-01-27T08:38:48.202Z,8.06
2019-01-27T08:41:23.818Z,8.01
2019-01-27T08:44:00.943Z,7.96
2019-01-27T08:46:32.411Z,8.08
2019-01-27T08:49:02.172Z,7.98
2019-01-27T08:51:31.867Z,7.83
2019-01-27T08:54:01.462Z,8.08
2019-01-27T08:56:31.107Z,8.11
2019-01-27T08:59:02.683Z,7.88
2019-01-27T09:01:50.197Z,7.95
2019-01-27T09:04:21.418Z,8.18
2019-01-27T09:07:09.461Z,8.30
2019-01-27T09:09:39.142Z,7.72
2019-01-27T09:12:26.812Z,8.30
2019-01-27T09:15:13.329Z,7.87
2019-01-27T09:17:47.487Z,8.06
2019-01-27T09:20:24.764Z,8.18
2019-01-27T09:22:54.351Z,8.40
2019-01-27T09:25:31.387Z,8.27
2019-01-27T09:28:05.668Z,8.30
2019-01-27T09:30:53.474Z,8.52
2019-01-27T09:33:24.659Z,8.68
2019-01-27T09:35:58.693Z,8.63
2019-01-27T09:38:35.958Z,8.46
2019-01-27T09:41:07.633Z,8.78
2019-01-27T09:43:42.721Z,8.83
2019-01-27T09:46:14.221Z,8.66
2019-01-27T09:48:48.142Z,9.11
2019-01-27T09:51:31.842Z,8.96
2019-01-27T09:54:05.911Z,8.89
2019-01-27T09:56:43.330Z,9.02
2019-01-27T09:59:26.228Z,9.02
2019-01-27T10:02:03.448Z,9.00
2019-01-27T10:04:34.869Z,9.06
2019-01-27T10:07:09.118Z,9.23
2019-01-27T10:09:58.346Z,9.06
2019-01-27T10:12:27.814Z,8.68
2019-01-27T10:14:59.476Z,8.92
2019-01-27T10:17:39.601Z,9.09
2019-01-27T10:20:11.847Z,9.33
2019-01-27T10:22:43.202Z,9.06
2019-01-27T10:25:24.228Z,9.03
2019-01-27T10:28:01.690Z,9.31
2019-01-27T10:30:47.781Z,8.87
2019-01-27T10:33:23.571Z,9.44
2019-01-27T10:36:00.957Z,9.25
2019-01-27T10:38:38.062Z,9.16
2019-01-27T10:41:09.313Z,9.19
2019-01-27T10:43:40.763Z,9.11
2019-01-27T10:46:12.333Z,9.55
2019-01-27T10:48:58.861Z,9.55
2019-01-27T10:51:32.791Z,9.50
2019-01-27T10:54:04.197Z,9.95
2019-01-27T10:56:38.363Z,9.87
2019-01-27T10:59:12.850Z,9.82
2019-01-27T11:01:44.694Z,10.06
2019-01-27T11:04:22.551Z,10.22
2019-01-27T11:06:53.865Z,10.12
2019-01-27T11:09:27.818Z,9.46
2019-01-27T11:12:15.209Z,9.83
2019-01-27T11:14:58.697Z,9.71
2019-01-27T11:17:30.594Z,9.76
2019-01-27T11:20:05.152Z,9.77
2019-01-27T11:22:36.782Z,10.15
2019-01-27T11:25:15.635Z,9.98
2019-01-27T11:27:51.008Z,9.47
2019-01-27T11:30:22.427Z,9.77
2019-01-27T11:33:05.840Z,10.29
2019-01-27T11:35:40.197Z,9.62
2019-01-27T11:38:23.787Z,10.19
2019-01-27T11:40:55.013Z,9.94
2019-01-27T11:43:29.623Z,9.88
2019-01-27T11:46:17.827Z,10.43
2019-01-27T11:48:52.057Z,10.17
2019-01-27T11:51:23.346Z,10.14
2019-01-27T11:53:53.279Z,10.26
2019-01-27T11:56:23.017Z,9.52
2019-01-27T11:58:53.219Z,9.46
2019-01-27T12:01:23.048Z,9.43
2019-01-27T12:03:52.858Z,9.79
2019-01-27T12:06:22.648Z,9.50
2019-01-27T12:08:52.437Z,9.64
2019-01-27T12:11:22.153Z,9.43
2019-01-27T12:13:52.101Z,10.00
2019-01-27T12:16:21.786Z,9.65
2019-01-27T12:18:51.796Z,10.05
2019-01-27T12:21:21.836Z,10.49
2019-01-27T12:23:51.567Z,9.96
2019-01-27T12:26:21.230Z,10.20
2019-01-27T12:28:51.205Z,9.20
2019-01-27T12:31:20.952Z,9.77
2019-01-27T12:33:50.960Z,9.93
2019-01-27T12:36:20.799Z,9.78
2019-01-27T12:38:50.512Z,10.11
2019-01-27T12:41:21.486Z,9.67
2019-01-27T12:43:51.375Z,10.24
2019-01-27T12:46:21.029Z,9.50
2019-01-27T12:48:51.058Z,9.43
2019-01-27T12:51:20.917Z,9.38
2019-01-27T12:53:50.579Z,9.79
2019-01-27T12:56:20.336Z,9.45
2019-01-27T12:58:50.028Z,9.53
2019-01-27T13:01:19.814Z,9.48
2019-01-27T13:03:49.335Z,9.92
2019-01-27T13:06:19.488Z,9.57
2019-01-27T13:08:49.295Z,9.96
2019-01-27T13:11:19.133Z,9.79
2019-01-27T13:13:48.972Z,9.39
2019-01-27T13:16:19.100Z,9.29
2019-01-27T13:18:48.768Z,9.18
2019-01-27T13:21:19.172Z,9.51
2019-01-27T13:23:49.028Z,9.23
2019-01-27T13:26:18.796Z,9.16
2019-01-27T13:28:48.417Z,9.67
2019-01-27T13:31:18.752Z,9.39
2019-01-27T13:33:48.701Z,9.20
2019-01-27T13:36:18.795Z,9.09
2019-01-27T13:38:51.246Z,9.43
2019-01-27T13:41:20.005Z,9.26
2019-01-27T13:43:49.872Z,8.91
2019-01-27T13:46:19.642Z,9.42
2019-01-27T13:48:49.436Z,8.98
2019-01-27T13:51:19.245Z,9.52
2019-01-27T13:53:49.535Z,8.95
2019-01-27T13:56:19.706Z,9.00
2019-01-27T13:58:49.884Z,9.39
2019-01-27T14:01:19.602Z,8.94
2019-01-27T14:03:49.712Z,9.31
2019-01-27T14:06:19.399Z,9.56
2019-01-27T14:08:49.592Z,9.77
2019-01-27T14:11:19.187Z,9.61
2019-01-27T14:13:49.045Z,9.14
2019-01-27T14:16:19.107Z,9.65
2019-01-27T14:18:49.665Z,9.18
2019-01-27T14:21:19.275Z,8.95
2019-01-27T14:23:49.448Z,8.97
2019-01-27T14:26:19.081Z,8.91
2019-01-27T14:28:48.922Z,9.30
2019-01-27T14:31:18.694Z,8.39
2019-01-27T14:33:48.907Z,8.42
2019-01-27T14:36:18.892Z,8.46
2019-01-27T14:38:48.850Z,8.28
2019-01-27T14:41:18.866Z,8.83
2019-01-27T14:43:48.434Z,8.69
2019-01-27T14:46:18.318Z,8.55
2019-01-27T14:48:48.290Z,8.73
2019-01-27T14:51:18.121Z,8.72
2019-01-27T14:53:48.035Z,8.48
2019-01-27T14:56:17.662Z,8.45
2019-01-27T14:58:47.644Z,9.11
2019-01-27T15:01:17.724Z,8.44
2019-01-27T15:03:47.625Z,8.87
2019-01-27T15:06:17.722Z,8.71
2019-01-27T15:08:47.550Z,8.47
2019-01-27T15:11:17.470Z,8.85
2019-01-27T15:13:47.110Z,8.35
2019-01-27T15:16:17.007Z,8.56
2019-01-27T15:18:46.952Z,8.60
2019-01-27T15:21:16.679Z,8.48
2019-01-27T15:23:46.480Z,9.10
2019-01-27T15:26:16.174Z,8.01
2019-01-27T15:28:45.900Z,8.51
2019-01-27T15:31:15.627Z,8.34
2019-01-27T15:33:45.664Z,8.08
2019-01-27T15:36:15.371Z,8.71
2019-01-27T15:38:44.931Z,8.23
2019-01-27T15:41:14.807Z,8.68
2019-01-27T15:43:48.522Z,8.92
2019-01-27T15:46:15.790Z,8.53
2019-01-27T15:48:45.694Z,8.50
2019-01-27T15:51:15.499Z,9.04
2019-01-27T15:53:45.294Z,8.54
2019-01-27T15:56:14.969Z,8.51
2019-01-27T15:58:44.821Z,8.37
2019-01-27T16:01:15.827Z,8.30
2019-01-27T16:03:45.905Z,8.40
2019-01-27T16:06:15.542Z,8.39
2019-01-27T16:08:45.603Z,8.27
2019-01-27T16:11:15.492Z,9.13
2019-01-27T16:13:45.416Z,9.20
2019-01-27T16:16:15.100Z,9.19
2019-01-27T16:18:45.311Z,8.77
2019-01-27T16:21:15.005Z,8.88
2019-01-27T16:23:46.355Z,8.76
2019-01-27T16:26:15.976Z,8.73
2019-01-27T16:28:46.066Z,9.00
2019-01-27T16:31:23.089Z,9.13
2019-01-27T16:34:00.321Z,8.83
2019-01-27T16:36:31.378Z,8.94
2019-01-27T16:39:01.517Z,9.05
2019-01-27T16:41:31.521Z,8.98
2019-01-27T16:44:01.444Z,8.41
2019-01-27T16:46:31.233Z,8.53
2019-01-27T16:49:01.290Z,9.81
2019-01-27T16:51:31.110Z,8.96
2019-01-27T16:54:00.797Z,9.10
2019-01-27T16:56:35.427Z,9.54
2019-01-27T16:59:05.445Z,8.65
2019-01-27T17:01:35.283Z,8.59
2019-01-27T17:04:05.445Z,8.95
2019-01-27T17:06:35.777Z,9.18
2019-01-27T17:09:08.669Z,8.33
2019-01-27T17:11:40.400Z,8.16
2019-01-27T17:14:10.601Z,8.58
2019-01-27T17:16:41.249Z,9.03
2019-01-27T17:19:11.162Z,7.74
2019-01-27T17:21:41.171Z,8.15
2019-01-27T17:24:10.840Z,8.72
2019-01-27T17:26:40.939Z,8.10
2019-01-27T17:29:10.730Z,8.00
2019-01-27T17:31:44.688Z,7.47
2019-01-27T17:34:12.182Z,7.23
2019-01-27T17:36:42.028Z,7.20
2019-01-27T17:39:11.967Z,7.00
2019-01-27T17:41:43.469Z,6.95
2019-01-27T17:44:13.383Z,6.91
2019-01-27T17:46:43.453Z,7.10
2019-01-27T17:49:13.313Z,7.72
2019-01-27T17:51:43.180Z,7.10
2019-01-27T17:54:12.699Z,6.83
2019-01-27T17:56:44.065Z,7.22
2019-01-27T17:59:15.502Z,7.09
2019-01-27T18:01:50.433Z,6.42
2019-01-27T18:04:36.966Z,6.53
2019-01-27T18:07:27.123Z,7.48
2019-01-27T18:10:01.275Z,6.84
2019-01-27T18:12:38.837Z,7.04
2019-01-27T18:15:10.198Z,6.94
2019-01-27T18:17:39.997Z,6.70
2019-01-27T18:20:12.104Z,6.31
2019-01-27T18:22:42.049Z,6.39
2019-01-27T18:25:12.671Z,7.14
2019-01-27T18:27:42.487Z,6.57
2019-01-27T18:30:16.617Z,7.44
2019-01-27T18:32:46.759Z,6.63
2019-01-27T18:35:16.724Z,6.81
2019-01-27T18:37:46.683Z,7.34
2019-01-27T18:40:16.405Z,7.80
2019-01-27T18:42:46.509Z,7.75
2019-01-27T18:45:17.601Z,6.69
2019-01-27T18:47:50.737Z,7.19
2019-01-27T18:50:20.846Z,7.70
2019-01-27T18:52:53.183Z,7.27
2019-01-27T18:55:43.411Z,7.01
2019-01-27T18:58:22.404Z,7.32
2019-01-27T19:00:56.678Z,7.67
2019-01-27T19:03:31.374Z,7.30
2019-01-27T19:06:05.710Z,6.89
2019-01-27T19:08:38.704Z,7.44
2019-01-27T19:11:22.780Z,6.79
2019-01-27T19:13:57.557Z,7.55
2019-01-27T19:16:30.989Z,7.14
2019-01-27T19:19:17.820Z,7.43
2019-01-27T19:21:47.437Z,7.29
2019-01-27T19:24:26.084Z,7.27
2019-01-27T19:26:55.519Z,7.06
2019-01-27T19:29:36.060Z,7.04
2019-01-27T19:32:07.937Z,7.47
2019-01-27T19:34:39.300Z,7.38
2019-01-27T19:37:10.672Z,7.39
2019-01-27T19:39:48.157Z,7.16
2019-01-27T19:42:22.617Z,7.23
2019-01-27T19:45:02.983Z,7.08
2019-01-27T19:47:50.762Z,7.22
2019-01-27T19:50:38.519Z,6.48
2019-01-27T19:53:22.034Z,6.99
2019-01-27T19:56:05.113Z,6.63
2019-01-27T19:58:39.755Z,7.49
2019-01-27T20:01:16.671Z,7.56
2019-01-27T20:03:49.141Z,7.56
2019-01-27T20:06:19.012Z,6.67
2019-01-27T20:08:50.354Z,6.95
2019-01-27T20:11:22.038Z,7.29
2019-01-27T20:13:59.067Z,7.80
2019-01-27T20:16:30.683Z,6.93
2019-01-27T20:19:06.194Z,7.13
2019-01-27T20:21:35.993Z,7.17
2019-01-27T20:24:07.548Z,6.90
2019-01-27T20:26:38.836Z,6.94
2019-01-27T20:29:10.456Z,7.08
2019-01-27T20:31:57.381Z,6.85
2019-01-27T20:34:45.264Z,7.35
2019-01-27T20:37:29.201Z,6.09
2019-01-27T20:40:00.522Z,7.17
2019-01-27T20:42:34.717Z,6.38
2019-01-27T20:45:24.552Z,6.63
2019-01-27T20:48:04.747Z,7.08
2019-01-27T20:50:36.342Z,6.91
2019-01-27T20:53:07.698Z,6.69
2019-01-27T20:55:39.351Z,6.41
2019-01-27T20:58:13.567Z,6.54
2019-01-27T21:01:01.963Z,7.00
2019-01-27T21:03:37.414Z,6.88
2019-01-27T21:06:27.649Z,6.89
2019-01-27T21:09:01.778Z,7.09
2019-01-27T21:11:40.887Z,6.66
2019-01-27T21:14:18.672Z,7.10
2019-01-27T21:16:52.893Z,6.91
2019-01-27T21:19:27.588Z,7.13
2019-01-27T21:21:57.640Z,7.68
2019-01-27T21:24:27.507Z,6.97
2019-01-27T21:26:57.515Z,6.94
2019-01-27T21:29:27.247Z,7.11
2019-01-27T21:31:56.973Z,6.84
2019-01-27T21:34:26.860Z,6.10
2019-01-27T21:36:59.176Z,7.05
2019-01-27T21:39:28.973Z,6.60
2019-01-27T21:41:58.783Z,6.20
2019-01-27T21:44:28.658Z,6.89
2019-01-27T21:46:58.429Z,6.71
2019-01-27T21:49:28.859Z,6.33
2019-01-27T21:51:58.949Z,6.62
2019-01-27T21:54:28.741Z,6.65
2019-01-27T21:56:58.571Z,6.74
2019-01-27T21:59:28.455Z,6.19
2019-01-27T22:01:58.317Z,6.76
2019-01-27T22:04:28.097Z,7.12
2019-01-27T22:06:57.819Z,6.51
2019-01-27T22:09:27.906Z,6.35
2019-01-27T22:11:59.421Z,6.89
2019-01-27T22:14:35.968Z,7.02
2019-01-27T22:17:07.629Z,6.32
2019-01-27T22:19:37.996Z,6.60
2019-01-27T22:22:09.637Z,6.79
2019-01-27T22:24:42.439Z,6.41
2019-01-27T22:27:12.994Z,6.57
2019-01-27T22:29:45.724Z,6.70
2019-01-27T22:32:15.356Z,7.06
2019-01-27T22:34:45.077Z,6.88
2019-01-27T22:37:14.818Z,5.91
2019-01-27T22:39:44.669Z,6.40
2019-01-27T22:42:14.531Z,6.72
2019-01-27T22:44:44.472Z,6.78
2019-01-27T22:47:14.397Z,6.53
2019-01-27T22:49:44.576Z,6.57
2019-01-27T22:52:14.477Z,5.96
2019-01-27T22:54:44.523Z,6.03
2019-01-27T22:57:14.287Z,6.54
2019-01-27T22:59:44.194Z,6.69
2019-01-27T23:02:14.130Z,6.72
2019-01-27T23:04:44.192Z,6.61
2019-01-27T23:07:13.782Z,6.98
2019-01-27T23:09:43.791Z,6.58
2019-01-27T23:12:13.594Z,6.86
2019-01-27T23:14:43.362Z,6.92
2019-01-27T23:17:13.297Z,6.62
2019-01-27T23:19:42.943Z,6.69
2019-01-27T23:22:12.831Z,6.33
2019-01-27T23:24:42.528Z,6.59
2019-01-27T23:27:12.355Z,6.17
2019-01-27T23:29:42.248Z,6.34
2019-01-27T23:32:11.812Z,6.20
2019-01-27T23:34:41.498Z,6.46
2019-01-27T23:37:11.106Z,6.08
2019-01-27T23:39:40.931Z,6.34
2019-01-27T23:42:10.519Z,6.09
2019-01-27T23:44:40.252Z,6.48
2019-01-27T23:47:09.875Z,6.45
2019-01-27T23:49:39.827Z,6.47
2019-01-27T23:52:09.377Z,6.52
2019-01-27T23:54:39.117Z,6.45
2019-01-27T23:57:08.682Z,6.45
2019-01-27T23:59:38.440Z,6.90
